sensor_id;sensor_type;location;lat;lon;timestamp;P1;durP1;ratioP1;P2;durP2;ratioP2
9904;SDS011;4991;43.566;27.820;2022-07-12T00:01:54;2.77;;;1.73;;
9904;SDS011;4991;43.566;27.820;2022-07-12T00:04:20;2.27;;;1.77;;
9904;SDS011;4991;43.566;27.820;2022-07-12T00:06:46;3.73;;;1.90;;
9904;SDS011;4991;43.566;27.820;2022-07-12T00:09:12;3.50;;;2.07;;
9904;SDS011;4991;43.566;27.820;2022-07-12T00:11:37;3.33;;;1.90;;
9904;SDS011;4991;43.566;27.820;2022-07-12T00:14:03;2.03;;;1.67;;
9904;SDS011;4991;43.566;27.820;2022-07-12T00:16:30;4.20;;;2.20;;
9904;SDS011;4991;43.566;27.820;2022-07-12T00:18:56;5.03;;;2.20;;
9904;SDS011;4991;43.566;27.820;2022-07-12T00:21:21;2.83;;;2.00;;
9904;SDS011;4991;43.566;27.820;2022-07-12T00:23:47;5.37;;;2.10;;
9904;SDS011;4991;43.566;27.820;2022-07-12T00:26:13;2.00;;;1.50;;
9904;SDS011;4991;43.566;27.820;2022-07-12T00:28:39;2.83;;;1.53;;
9904;SDS011;4991;43.566;27.820;2022-07-12T00:31:04;3.40;;;1.97;;
9904;SDS011;4991;43.566;27.820;2022-07-12T00:33:30;2.90;;;1.87;;
9904;SDS011;4991;43.566;27.820;2022-07-12T00:35:56;5.73;;;1.93;;
9904;SDS011;4991;43.566;27.820;2022-07-12T00:38:21;2.60;;;1.70;;
9904;SDS011;4991;43.566;27.820;2022-07-12T00:40:47;2.80;;;1.60;;
9904;SDS011;4991;43.566;27.820;2022-07-12T00:43:14;3.27;;;1.80;;
9904;SDS011;4991;43.566;27.820;2022-07-12T00:45:40;3.90;;;2.07;;
9904;SDS011;4991;43.566;27.820;2022-07-12T00:48:06;4.07;;;2.20;;
9904;SDS011;4991;43.566;27.820;2022-07-12T00:50:32;3.13;;;1.90;;
9904;SDS011;4991;43.566;27.820;2022-07-12T00:52:58;2.17;;;1.80;;
9904;SDS011;4991;43.566;27.820;2022-07-12T00:55:23;2.10;;;1.63;;
9904;SDS011;4991;43.566;27.820;2022-07-12T00:57:49;1.70;;;1.60;;
9904;SDS011;4991;43.566;27.820;2022-07-12T01:00:17;2.57;;;1.83;;
9904;SDS011;4991;43.566;27.820;2022-07-12T01:02:46;4.60;;;2.20;;
9904;SDS011;4991;43.566;27.820;2022-07-12T01:05:12;2.53;;;1.73;;
9904;SDS011;4991;43.566;27.820;2022-07-12T01:07:38;1.90;;;1.70;;
9904;SDS011;4991;43.566;27.820;2022-07-12T01:10:06;3.17;;;1.70;;
9904;SDS011;4991;43.566;27.820;2022-07-12T01:12:33;2.43;;;1.70;;
9904;SDS011;4991;43.566;27.820;2022-07-12T01:14:59;3.80;;;2.23;;
9904;SDS011;4991;43.566;27.820;2022-07-12T01:17:25;3.03;;;2.10;;
9904;SDS011;4991;43.566;27.820;2022-07-12T01:19:53;4.23;;;1.73;;
9904;SDS011;4991;43.566;27.820;2022-07-12T01:22:20;3.80;;;2.00;;
9904;SDS011;4991;43.566;27.820;2022-07-12T01:24:55;2.50;;;1.73;;
9904;SDS011;4991;43.566;27.820;2022-07-12T01:27:21;2.47;;;1.60;;
9904;SDS011;4991;43.566;27.820;2022-07-12T01:29:47;2.40;;;1.80;;
9904;SDS011;4991;43.566;27.820;2022-07-12T01:32:12;5.77;;;1.80;;
9904;SDS011;4991;43.566;27.820;2022-07-12T01:35:08;1.70;;;1.60;;
9904;SDS011;4991;43.566;27.820;2022-07-12T01:37:35;1.90;;;1.70;;
9904;SDS011;4991;43.566;27.820;2022-07-12T01:40:07;2.90;;;2.07;;
9904;SDS011;4991;43.566;27.820;2022-07-12T01:42:34;3.73;;;2.10;;
9904;SDS011;4991;43.566;27.820;2022-07-12T01:45:01;4.57;;;2.30;;
9904;SDS011;4991;43.566;27.820;2022-07-12T01:47:29;3.07;;;2.00;;
9904;SDS011;4991;43.566;27.820;2022-07-12T01:49:56;3.53;;;1.60;;
9904;SDS011;4991;43.566;27.820;2022-07-12T01:52:22;2.80;;;1.97;;
9904;SDS011;4991;43.566;27.820;2022-07-12T01:54:48;2.23;;;1.97;;
9904;SDS011;4991;43.566;27.820;2022-07-12T01:57:14;4.20;;;2.40;;
9904;SDS011;4991;43.566;27.820;2022-07-12T01:59:40;2.73;;;1.97;;
9904;SDS011;4991;43.566;27.820;2022-07-12T02:02:06;5.43;;;2.33;;
9904;SDS011;4991;43.566;27.820;2022-07-12T02:04:32;3.37;;;2.10;;
9904;SDS011;4991;43.566;27.820;2022-07-12T02:06:59;2.70;;;1.87;;
9904;SDS011;4991;43.566;27.820;2022-07-12T02:09:26;1.73;;;1.60;;
9904;SDS011;4991;43.566;27.820;2022-07-12T02:11:52;3.37;;;1.77;;
9904;SDS011;4991;43.566;27.820;2022-07-12T02:14:18;3.37;;;2.10;;
9904;SDS011;4991;43.566;27.820;2022-07-12T02:16:44;2.67;;;2.00;;
9904;SDS011;4991;43.566;27.820;2022-07-12T02:19:11;1.77;;;1.60;;
9904;SDS011;4991;43.566;27.820;2022-07-12T02:21:38;2.70;;;1.90;;
9904;SDS011;4991;43.566;27.820;2022-07-12T02:24:04;3.43;;;1.97;;
9904;SDS011;4991;43.566;27.820;2022-07-12T02:26:30;2.50;;;1.73;;
9904;SDS011;4991;43.566;27.820;2022-07-12T02:28:58;2.10;;;1.90;;
9904;SDS011;4991;43.566;27.820;2022-07-12T02:31:24;2.30;;;1.60;;
9904;SDS011;4991;43.566;27.820;2022-07-12T02:33:51;2.13;;;1.93;;
9904;SDS011;4991;43.566;27.820;2022-07-12T02:36:16;2.93;;;1.73;;
9904;SDS011;4991;43.566;27.820;2022-07-12T02:38:42;1.93;;;1.73;;
9904;SDS011;4991;43.566;27.820;2022-07-12T02:41:08;2.53;;;1.90;;
9904;SDS011;4991;43.566;27.820;2022-07-12T02:43:33;2.47;;;1.90;;
9904;SDS011;4991;43.566;27.820;2022-07-12T02:46:06;2.87;;;1.70;;
9904;SDS011;4991;43.566;27.820;2022-07-12T02:48:33;4.33;;;1.80;;
9904;SDS011;4991;43.566;27.820;2022-07-12T02:51:00;2.87;;;1.80;;
9904;SDS011;4991;43.566;27.820;2022-07-12T02:53:26;2.57;;;1.60;;
9904;SDS011;4991;43.566;27.820;2022-07-12T02:55:52;2.20;;;1.80;;
9904;SDS011;4991;43.566;27.820;2022-07-12T02:58:18;1.90;;;1.73;;
9904;SDS011;4991;43.566;27.820;2022-07-12T03:00:43;3.93;;;1.90;;
9904;SDS011;4991;43.566;27.820;2022-07-12T03:03:12;2.00;;;1.90;;
9904;SDS011;4991;43.566;27.820;2022-07-12T03:05:38;2.10;;;1.67;;
9904;SDS011;4991;43.566;27.820;2022-07-12T03:08:04;2.20;;;1.57;;
9904;SDS011;4991;43.566;27.820;2022-07-12T03:10:31;2.83;;;1.70;;
9904;SDS011;4991;43.566;27.820;2022-07-12T03:12:57;3.07;;;1.70;;
9904;SDS011;4991;43.566;27.820;2022-07-12T03:15:23;5.70;;;2.07;;
9904;SDS011;4991;43.566;27.820;2022-07-12T03:17:48;2.43;;;2.23;;
9904;SDS011;4991;43.566;27.820;2022-07-12T03:20:14;3.53;;;2.80;;
9904;SDS011;4991;43.566;27.820;2022-07-12T03:22:43;3.90;;;3.00;;
9904;SDS011;4991;43.566;27.820;2022-07-12T03:25:11;4.20;;;2.73;;
9904;SDS011;4991;43.566;27.820;2022-07-12T03:27:37;2.70;;;1.80;;
9904;SDS011;4991;43.566;27.820;2022-07-12T03:30:04;3.57;;;2.07;;
9904;SDS011;4991;43.566;27.820;2022-07-12T03:32:30;2.90;;;1.90;;
9904;SDS011;4991;43.566;27.820;2022-07-12T03:34:56;2.63;;;1.93;;
9904;SDS011;4991;43.566;27.820;2022-07-12T03:37:22;5.37;;;2.23;;
9904;SDS011;4991;43.566;27.820;2022-07-12T03:39:48;3.27;;;1.80;;
9904;SDS011;4991;43.566;27.820;2022-07-12T03:42:14;8.17;;;2.00;;
9904;SDS011;4991;43.566;27.820;2022-07-12T03:44:39;3.53;;;1.90;;
9904;SDS011;4991;43.566;27.820;2022-07-12T03:47:05;5.53;;;2.30;;
9904;SDS011;4991;43.566;27.820;2022-07-12T03:49:31;6.47;;;2.43;;
9904;SDS011;4991;43.566;27.820;2022-07-12T03:51:56;3.30;;;2.13;;
9904;SDS011;4991;43.566;27.820;2022-07-12T03:54:22;2.93;;;2.13;;
9904;SDS011;4991;43.566;27.820;2022-07-12T03:56:48;3.60;;;2.10;;
9904;SDS011;4991;43.566;27.820;2022-07-12T03:59:33;3.87;;;1.90;;
9904;SDS011;4991;43.566;27.820;2022-07-12T04:01:59;5.10;;;2.10;;
9904;SDS011;4991;43.566;27.820;2022-07-12T04:04:24;2.37;;;2.07;;
9904;SDS011;4991;43.566;27.820;2022-07-12T04:06:50;4.07;;;2.30;;
9904;SDS011;4991;43.566;27.820;2022-07-12T04:09:16;2.77;;;2.33;;
9904;SDS011;4991;43.566;27.820;2022-07-12T04:11:42;4.00;;;2.00;;
9904;SDS011;4991;43.566;27.820;2022-07-12T04:14:07;4.83;;;2.50;;
9904;SDS011;4991;43.566;27.820;2022-07-12T04:16:33;7.10;;;2.40;;
9904;SDS011;4991;43.566;27.820;2022-07-12T04:18:59;3.20;;;2.20;;
9904;SDS011;4991;43.566;27.820;2022-07-12T04:21:24;2.90;;;2.00;;
9904;SDS011;4991;43.566;27.820;2022-07-12T04:23:50;3.17;;;2.40;;
9904;SDS011;4991;43.566;27.820;2022-07-12T04:26:16;2.87;;;2.10;;
9904;SDS011;4991;43.566;27.820;2022-07-12T04:28:42;2.47;;;1.97;;
9904;SDS011;4991;43.566;27.820;2022-07-12T04:31:07;3.73;;;3.40;;
9904;SDS011;4991;43.566;27.820;2022-07-12T04:33:34;2.27;;;2.07;;
9904;SDS011;4991;43.566;27.820;2022-07-12T04:36:00;2.40;;;2.20;;
9904;SDS011;4991;43.566;27.820;2022-07-12T04:38:25;4.87;;;3.23;;
9904;SDS011;4991;43.566;27.820;2022-07-12T04:40:51;4.67;;;2.73;;
9904;SDS011;4991;43.566;27.820;2022-07-12T04:43:17;5.07;;;2.20;;
9904;SDS011;4991;43.566;27.820;2022-07-12T04:45:42;3.07;;;2.37;;
9904;SDS011;4991;43.566;27.820;2022-07-12T04:48:11;4.60;;;2.00;;
9904;SDS011;4991;43.566;27.820;2022-07-12T04:50:37;2.63;;;2.10;;
9904;SDS011;4991;43.566;27.820;2022-07-12T04:53:03;2.77;;;2.10;;
9904;SDS011;4991;43.566;27.820;2022-07-12T04:55:29;2.73;;;1.90;;
9904;SDS011;4991;43.566;27.820;2022-07-12T04:57:55;2.27;;;1.83;;
9904;SDS011;4991;43.566;27.820;2022-07-12T05:00:20;3.27;;;2.10;;
9904;SDS011;4991;43.566;27.820;2022-07-12T05:02:47;2.53;;;2.10;;
9904;SDS011;4991;43.566;27.820;2022-07-12T05:05:12;2.37;;;1.97;;
9904;SDS011;4991;43.566;27.820;2022-07-12T05:07:39;4.80;;;2.23;;
9904;SDS011;4991;43.566;27.820;2022-07-12T05:10:08;5.83;;;1.90;;
9904;SDS011;4991;43.566;27.820;2022-07-12T05:12:34;3.47;;;2.17;;
9904;SDS011;4991;43.566;27.820;2022-07-12T05:15:00;3.87;;;1.80;;
9904;SDS011;4991;43.566;27.820;2022-07-12T05:17:26;3.73;;;2.10;;
9904;SDS011;4991;43.566;27.820;2022-07-12T05:19:52;2.97;;;2.13;;
9904;SDS011;4991;43.566;27.820;2022-07-12T05:22:17;2.33;;;1.93;;
9904;SDS011;4991;43.566;27.820;2022-07-12T05:24:43;2.77;;;1.83;;
9904;SDS011;4991;43.566;27.820;2022-07-12T05:27:09;2.27;;;2.07;;
9904;SDS011;4991;43.566;27.820;2022-07-12T05:29:35;4.13;;;2.00;;
9904;SDS011;4991;43.566;27.820;2022-07-12T05:32:00;2.93;;;2.10;;
9904;SDS011;4991;43.566;27.820;2022-07-12T05:34:26;3.90;;;1.93;;
9904;SDS011;4991;43.566;27.820;2022-07-12T05:36:52;2.17;;;1.97;;
9904;SDS011;4991;43.566;27.820;2022-07-12T05:39:18;4.27;;;2.00;;
9904;SDS011;4991;43.566;27.820;2022-07-12T05:41:44;3.73;;;2.03;;
9904;SDS011;4991;43.566;27.820;2022-07-12T05:44:10;4.53;;;2.20;;
9904;SDS011;4991;43.566;27.820;2022-07-12T05:46:36;1.90;;;1.63;;
9904;SDS011;4991;43.566;27.820;2022-07-12T05:49:02;2.80;;;1.60;;
9904;SDS011;4991;43.566;27.820;2022-07-12T05:51:28;2.90;;;1.70;;
9904;SDS011;4991;43.566;27.820;2022-07-12T05:54:12;2.57;;;2.10;;
9904;SDS011;4991;43.566;27.820;2022-07-12T05:56:38;3.13;;;2.20;;
9904;SDS011;4991;43.566;27.820;2022-07-12T05:59:03;2.50;;;1.90;;
9904;SDS011;4991;43.566;27.820;2022-07-12T06:01:29;3.67;;;2.00;;
9904;SDS011;4991;43.566;27.820;2022-07-12T06:03:54;4.53;;;2.13;;
9904;SDS011;4991;43.566;27.820;2022-07-12T06:06:20;4.00;;;1.90;;
9904;SDS011;4991;43.566;27.820;2022-07-12T06:08:46;4.13;;;1.77;;
9904;SDS011;4991;43.566;27.820;2022-07-12T06:11:11;5.93;;;2.43;;
9904;SDS011;4991;43.566;27.820;2022-07-12T06:13:37;4.00;;;2.03;;
9904;SDS011;4991;43.566;27.820;2022-07-12T06:16:03;2.20;;;1.80;;
9904;SDS011;4991;43.566;27.820;2022-07-12T06:18:31;5.27;;;2.23;;
9904;SDS011;4991;43.566;27.820;2022-07-12T06:20:59;5.43;;;1.97;;
9904;SDS011;4991;43.566;27.820;2022-07-12T06:23:26;2.50;;;2.10;;
9904;SDS011;4991;43.566;27.820;2022-07-12T06:25:51;3.50;;;2.30;;
9904;SDS011;4991;43.566;27.820;2022-07-12T06:28:17;6.33;;;2.10;;
9904;SDS011;4991;43.566;27.820;2022-07-12T06:30:43;2.03;;;1.83;;
9904;SDS011;4991;43.566;27.820;2022-07-12T06:33:08;3.93;;;1.73;;
9904;SDS011;4991;43.566;27.820;2022-07-12T06:35:34;6.43;;;2.00;;
9904;SDS011;4991;43.566;27.820;2022-07-12T06:37:59;4.97;;;2.10;;
9904;SDS011;4991;43.566;27.820;2022-07-12T06:40:25;2.60;;;2.00;;
9904;SDS011;4991;43.566;27.820;2022-07-12T06:42:51;7.47;;;1.90;;
9904;SDS011;4991;43.566;27.820;2022-07-12T06:45:17;2.83;;;2.00;;
9904;SDS011;4991;43.566;27.820;2022-07-12T06:47:43;3.47;;;2.30;;
9904;SDS011;4991;43.566;27.820;2022-07-12T06:50:09;4.20;;;1.90;;
9904;SDS011;4991;43.566;27.820;2022-07-12T06:52:35;5.33;;;1.80;;
9904;SDS011;4991;43.566;27.820;2022-07-12T06:55:01;3.93;;;1.90;;
9904;SDS011;4991;43.566;27.820;2022-07-12T06:57:27;3.30;;;1.87;;
9904;SDS011;4991;43.566;27.820;2022-07-12T06:59:55;3.67;;;2.27;;
9904;SDS011;4991;43.566;27.820;2022-07-12T07:02:21;4.23;;;1.90;;
9904;SDS011;4991;43.566;27.820;2022-07-12T07:04:47;4.20;;;2.10;;
9904;SDS011;4991;43.566;27.820;2022-07-12T07:07:13;3.73;;;1.80;;
9904;SDS011;4991;43.566;27.820;2022-07-12T07:09:39;2.73;;;2.20;;
9904;SDS011;4991;43.566;27.820;2022-07-12T07:12:05;3.37;;;2.00;;
9904;SDS011;4991;43.566;27.820;2022-07-12T07:14:30;5.03;;;2.27;;
9904;SDS011;4991;43.566;27.820;2022-07-12T07:16:56;2.83;;;1.73;;
9904;SDS011;4991;43.566;27.820;2022-07-12T07:19:22;3.60;;;1.90;;
9904;SDS011;4991;43.566;27.820;2022-07-12T07:21:52;2.47;;;1.87;;
9904;SDS011;4991;43.566;27.820;2022-07-12T07:24:20;2.70;;;1.70;;
9904;SDS011;4991;43.566;27.820;2022-07-12T07:26:46;5.13;;;2.10;;
9904;SDS011;4991;43.566;27.820;2022-07-12T07:29:12;2.13;;;1.77;;
9904;SDS011;4991;43.566;27.820;2022-07-12T07:31:56;4.40;;;1.90;;
9904;SDS011;4991;43.566;27.820;2022-07-12T07:34:22;2.60;;;2.10;;
9904;SDS011;4991;43.566;27.820;2022-07-12T07:36:49;3.50;;;2.00;;
9904;SDS011;4991;43.566;27.820;2022-07-12T07:39:15;1.70;;;1.60;;
9904;SDS011;4991;43.566;27.820;2022-07-12T07:41:41;2.63;;;2.00;;
9904;SDS011;4991;43.566;27.820;2022-07-12T07:44:06;2.30;;;1.80;;
9904;SDS011;4991;43.566;27.820;2022-07-12T07:46:32;3.23;;;1.73;;
9904;SDS011;4991;43.566;27.820;2022-07-12T07:48:58;3.77;;;1.97;;
9904;SDS011;4991;43.566;27.820;2022-07-12T07:51:24;2.67;;;1.90;;
9904;SDS011;4991;43.566;27.820;2022-07-12T07:53:49;3.77;;;1.73;;
9904;SDS011;4991;43.566;27.820;2022-07-12T07:56:15;4.07;;;2.47;;
9904;SDS011;4991;43.566;27.820;2022-07-12T07:58:40;2.47;;;1.80;;
9904;SDS011;4991;43.566;27.820;2022-07-12T08:01:06;2.43;;;1.97;;
9904;SDS011;4991;43.566;27.820;2022-07-12T08:03:32;2.37;;;1.93;;
9904;SDS011;4991;43.566;27.820;2022-07-12T08:05:57;3.00;;;1.40;;
9904;SDS011;4991;43.566;27.820;2022-07-12T08:08:23;3.30;;;2.00;;
9904;SDS011;4991;43.566;27.820;2022-07-12T08:10:50;8.63;;;2.23;;
9904;SDS011;4991;43.566;27.820;2022-07-12T08:13:16;3.40;;;1.83;;
9904;SDS011;4991;43.566;27.820;2022-07-12T08:15:42;3.63;;;2.00;;
9904;SDS011;4991;43.566;27.820;2022-07-12T08:18:07;2.70;;;1.70;;
9904;SDS011;4991;43.566;27.820;2022-07-12T08:20:33;3.10;;;2.07;;
9904;SDS011;4991;43.566;27.820;2022-07-12T08:22:59;5.63;;;2.17;;
9904;SDS011;4991;43.566;27.820;2022-07-12T08:25:26;6.20;;;2.20;;
9904;SDS011;4991;43.566;27.820;2022-07-12T08:27:51;2.30;;;2.00;;
9904;SDS011;4991;43.566;27.820;2022-07-12T08:30:17;2.17;;;1.77;;
9904;SDS011;4991;43.566;27.820;2022-07-12T08:32:43;3.43;;;2.13;;
9904;SDS011;4991;43.566;27.820;2022-07-12T08:35:10;4.37;;;2.30;;
9904;SDS011;4991;43.566;27.820;2022-07-12T08:37:36;2.40;;;1.70;;
9904;SDS011;4991;43.566;27.820;2022-07-12T08:40:03;3.47;;;2.27;;
9904;SDS011;4991;43.566;27.820;2022-07-12T08:42:30;2.67;;;2.00;;
9904;SDS011;4991;43.566;27.820;2022-07-12T08:44:58;5.43;;;2.00;;
9904;SDS011;4991;43.566;27.820;2022-07-12T08:47:24;3.40;;;2.00;;
9904;SDS011;4991;43.566;27.820;2022-07-12T08:52:51;5.00;;;1.90;;
9904;SDS011;4991;43.566;27.820;2022-07-12T08:55:23;5.60;;;2.20;;
9904;SDS011;4991;43.566;27.820;2022-07-12T08:57:56;6.40;;;2.40;;
9904;SDS011;4991;43.566;27.820;2022-07-12T09:00:24;4.63;;;2.23;;
9904;SDS011;4991;43.566;27.820;2022-07-12T09:05:20;3.83;;;2.03;;
9904;SDS011;4991;43.566;27.820;2022-07-12T09:07:50;2.40;;;1.90;;
9904;SDS011;4991;43.566;27.820;2022-07-12T09:10:16;3.60;;;2.03;;
9904;SDS011;4991;43.566;27.820;2022-07-12T09:12:44;4.10;;;2.07;;
9904;SDS011;4991;43.566;27.820;2022-07-12T09:20:22;3.20;;;2.20;;
9904;SDS011;4991;43.566;27.820;2022-07-12T09:22:54;3.40;;;2.40;;
9904;SDS011;4991;43.566;27.820;2022-07-12T09:25:21;4.10;;;2.00;;
9904;SDS011;4991;43.566;27.820;2022-07-12T09:27:48;3.10;;;1.83;;
9904;SDS011;4991;43.566;27.820;2022-07-12T09:30:18;3.65;;;1.92;;
9904;SDS011;4991;43.566;27.820;2022-07-12T09:35:35;8.03;;;2.10;;
9904;SDS011;4991;43.566;27.820;2022-07-12T09:38:19;3.40;;;1.98;;
9904;SDS011;4991;43.566;27.820;2022-07-12T09:40:44;2.63;;;2.30;;
9904;SDS011;4991;43.566;27.820;2022-07-12T09:43:12;2.67;;;2.45;;
9904;SDS011;4991;43.566;27.820;2022-07-12T09:45:39;2.55;;;2.05;;
9904;SDS011;4991;43.566;27.820;2022-07-12T09:48:06;4.03;;;2.20;;
9904;SDS011;4991;43.566;27.820;2022-07-12T09:50:34;4.72;;;1.90;;
9904;SDS011;4991;43.566;27.820;2022-07-12T09:53:00;3.53;;;2.22;;
9904;SDS011;4991;43.566;27.820;2022-07-12T09:55:30;3.00;;;2.28;;
9904;SDS011;4991;43.566;27.820;2022-07-12T09:58:00;2.33;;;2.13;;
9904;SDS011;4991;43.566;27.820;2022-07-12T10:00:27;3.92;;;2.58;;
9904;SDS011;4991;43.566;27.820;2022-07-12T10:02:53;3.13;;;2.08;;
9904;SDS011;4991;43.566;27.820;2022-07-12T10:05:22;2.08;;;1.90;;
9904;SDS011;4991;43.566;27.820;2022-07-12T10:07:49;2.72;;;2.30;;
9904;SDS011;4991;43.566;27.820;2022-07-12T10:10:16;4.28;;;2.53;;
9904;SDS011;4991;43.566;27.820;2022-07-12T10:12:42;3.10;;;1.98;;
9904;SDS011;4991;43.566;27.820;2022-07-12T10:15:09;3.15;;;2.15;;
9904;SDS011;4991;43.566;27.820;2022-07-12T10:17:40;3.35;;;2.50;;
9904;SDS011;4991;43.566;27.820;2022-07-12T10:20:26;7.13;;;2.50;;
9904;SDS011;4991;43.566;27.820;2022-07-12T10:22:53;3.95;;;2.30;;
9904;SDS011;4991;43.566;27.820;2022-07-12T10:27:58;3.88;;;2.40;;
9904;SDS011;4991;43.566;27.820;2022-07-12T10:30:25;2.78;;;2.38;;
9904;SDS011;4991;43.566;27.820;2022-07-12T10:32:52;3.35;;;2.70;;
9904;SDS011;4991;43.566;27.820;2022-07-12T10:35:22;3.58;;;2.63;;
9904;SDS011;4991;43.566;27.820;2022-07-12T10:40:37;4.28;;;2.35;;
9904;SDS011;4991;43.566;27.820;2022-07-12T10:45:32;6.15;;;2.60;;
9904;SDS011;4991;43.566;27.820;2022-07-12T10:48:00;5.53;;;2.65;;
9904;SDS011;4991;43.566;27.820;2022-07-12T10:58:44;6.28;;;2.30;;
9904;SDS011;4991;43.566;27.820;2022-07-12T11:03:48;4.18;;;2.50;;
9904;SDS011;4991;43.566;27.820;2022-07-12T11:06:19;2.72;;;2.22;;
9904;SDS011;4991;43.566;27.820;2022-07-12T11:08:53;2.55;;;2.30;;
9904;SDS011;4991;43.566;27.820;2022-07-12T11:11:45;3.58;;;2.70;;
9904;SDS011;4991;43.566;27.820;2022-07-12T11:14:34;4.53;;;2.80;;
9904;SDS011;4991;43.566;27.820;2022-07-12T11:17:00;3.58;;;2.53;;
9904;SDS011;4991;43.566;27.820;2022-07-12T11:19:27;7.32;;;2.90;;
9904;SDS011;4991;43.566;27.820;2022-07-12T11:21:54;2.95;;;2.60;;
9904;SDS011;4991;43.566;27.820;2022-07-12T11:24:24;2.50;;;2.30;;
9904;SDS011;4991;43.566;27.820;2022-07-12T11:26:51;4.10;;;2.50;;
9904;SDS011;4991;43.566;27.820;2022-07-12T11:29:20;5.57;;;2.67;;
9904;SDS011;4991;43.566;27.820;2022-07-12T11:31:46;2.50;;;2.30;;
9904;SDS011;4991;43.566;27.820;2022-07-12T11:34:22;2.88;;;2.58;;
9904;SDS011;4991;43.566;27.820;2022-07-12T11:36:56;6.65;;;2.47;;
9904;SDS011;4991;43.566;27.820;2022-07-12T11:42:03;6.68;;;2.65;;
9904;SDS011;4991;43.566;27.820;2022-07-12T11:47:15;8.77;;;2.70;;
9904;SDS011;4991;43.566;27.820;2022-07-12T11:49:43;3.08;;;2.60;;
9904;SDS011;4991;43.566;27.820;2022-07-12T11:52:16;2.95;;;2.33;;
9904;SDS011;4991;43.566;27.820;2022-07-12T11:54:43;4.05;;;2.97;;
9904;SDS011;4991;43.566;27.820;2022-07-12T11:57:18;2.53;;;2.30;;
9904;SDS011;4991;43.566;27.820;2022-07-12T11:59:45;3.10;;;2.35;;
9904;SDS011;4991;43.566;27.820;2022-07-12T12:02:12;3.40;;;2.17;;
9904;SDS011;4991;43.566;27.820;2022-07-12T12:04:49;2.28;;;2.08;;
9904;SDS011;4991;43.566;27.820;2022-07-12T12:07:16;4.53;;;2.38;;
9904;SDS011;4991;43.566;27.820;2022-07-12T12:15:08;6.65;;;2.63;;
9904;SDS011;4991;43.566;27.820;2022-07-12T12:17:36;5.47;;;2.65;;
9904;SDS011;4991;43.566;27.820;2022-07-12T12:20:35;5.70;;;2.80;;
9904;SDS011;4991;43.566;27.820;2022-07-12T12:22:56;3.63;;;2.42;;
9904;SDS011;4991;43.566;27.820;2022-07-12T12:25:23;2.95;;;2.65;;
9904;SDS011;4991;43.566;27.820;2022-07-12T12:27:53;4.47;;;2.70;;
9904;SDS011;4991;43.566;27.820;2022-07-12T12:30:22;2.65;;;2.45;;
9904;SDS011;4991;43.566;27.820;2022-07-12T12:32:50;4.78;;;2.92;;
9904;SDS011;4991;43.566;27.820;2022-07-12T12:35:38;5.35;;;2.53;;
9904;SDS011;4991;43.566;27.820;2022-07-12T12:38:14;6.88;;;2.22;;
9904;SDS011;4991;43.566;27.820;2022-07-12T12:40:49;4.63;;;2.75;;
9904;SDS011;4991;43.566;27.820;2022-07-12T12:43:20;2.50;;;2.30;;
9904;SDS011;4991;43.566;27.820;2022-07-12T12:45:53;2.40;;;2.20;;
9904;SDS011;4991;43.566;27.820;2022-07-12T12:48:30;4.38;;;2.60;;
9904;SDS011;4991;43.566;27.820;2022-07-12T12:53:32;2.55;;;2.30;;
9904;SDS011;4991;43.566;27.820;2022-07-12T12:55:59;6.43;;;2.40;;
9904;SDS011;4991;43.566;27.820;2022-07-12T12:58:25;5.38;;;2.42;;
9904;SDS011;4991;43.566;27.820;2022-07-12T13:00:53;2.80;;;2.30;;
9904;SDS011;4991;43.566;27.820;2022-07-12T13:03:20;2.63;;;2.25;;
9904;SDS011;4991;43.566;27.820;2022-07-12T13:05:49;7.43;;;2.75;;
9904;SDS011;4991;43.566;27.820;2022-07-12T13:08:15;2.38;;;2.17;;
9904;SDS011;4991;43.566;27.820;2022-07-12T13:10:42;2.45;;;2.25;;
9904;SDS011;4991;43.566;27.820;2022-07-12T13:13:09;3.95;;;2.10;;
9904;SDS011;4991;43.566;27.820;2022-07-12T13:15:36;4.38;;;2.30;;
9904;SDS011;4991;43.566;27.820;2022-07-12T13:18:02;2.72;;;2.00;;
9904;SDS011;4991;43.566;27.820;2022-07-12T13:20:29;2.60;;;2.30;;
9904;SDS011;4991;43.566;27.820;2022-07-12T13:22:55;8.18;;;2.30;;
9904;SDS011;4991;43.566;27.820;2022-07-12T13:25:21;2.65;;;1.95;;
9904;SDS011;4991;43.566;27.820;2022-07-12T13:27:48;3.70;;;2.05;;
9904;SDS011;4991;43.566;27.820;2022-07-12T13:30:15;2.20;;;2.05;;
9904;SDS011;4991;43.566;27.820;2022-07-12T13:32:41;5.72;;;2.45;;
9904;SDS011;4991;43.566;27.820;2022-07-12T13:35:08;3.47;;;2.30;;
9904;SDS011;4991;43.566;27.820;2022-07-12T13:37:36;5.78;;;2.40;;
9904;SDS011;4991;43.566;27.820;2022-07-12T13:40:03;5.40;;;2.45;;
9904;SDS011;4991;43.566;27.820;2022-07-12T13:42:39;3.88;;;2.25;;
9904;SDS011;4991;43.566;27.820;2022-07-12T13:45:07;2.95;;;2.50;;
9904;SDS011;4991;43.566;27.820;2022-07-12T13:47:35;6.72;;;2.60;;
9904;SDS011;4991;43.566;27.820;2022-07-12T13:50:01;3.22;;;2.50;;
9904;SDS011;4991;43.566;27.820;2022-07-12T13:52:27;3.95;;;2.67;;
9904;SDS011;4991;43.566;27.820;2022-07-12T13:54:53;3.33;;;2.53;;
9904;SDS011;4991;43.566;27.820;2022-07-12T13:57:18;4.50;;;2.75;;
9904;SDS011;4991;43.566;27.820;2022-07-12T13:59:44;8.80;;;2.85;;
9904;SDS011;4991;43.566;27.820;2022-07-12T14:02:11;2.30;;;2.10;;
9904;SDS011;4991;43.566;27.820;2022-07-12T14:04:38;8.70;;;2.78;;
9904;SDS011;4991;43.566;27.820;2022-07-12T14:07:03;5.80;;;2.30;;
9904;SDS011;4991;43.566;27.820;2022-07-12T14:09:29;4.72;;;2.75;;
9904;SDS011;4991;43.566;27.820;2022-07-12T14:11:55;5.72;;;2.70;;
9904;SDS011;4991;43.566;27.820;2022-07-12T14:14:21;3.85;;;2.92;;
9904;SDS011;4991;43.566;27.820;2022-07-12T14:17:06;3.50;;;2.42;;
9904;SDS011;4991;43.566;27.820;2022-07-12T14:19:32;3.78;;;2.60;;
9904;SDS011;4991;43.566;27.820;2022-07-12T14:21:57;3.65;;;2.10;;
9904;SDS011;4991;43.566;27.820;2022-07-12T14:24:23;4.75;;;2.70;;
9904;SDS011;4991;43.566;27.820;2022-07-12T14:26:49;2.50;;;2.17;;
9904;SDS011;4991;43.566;27.820;2022-07-12T14:29:15;6.28;;;2.67;;
9904;SDS011;4991;43.566;27.820;2022-07-12T14:31:41;9.45;;;3.42;;
9904;SDS011;4991;43.566;27.820;2022-07-12T14:34:07;9.00;;;2.88;;
9904;SDS011;4991;43.566;27.820;2022-07-12T14:36:32;8.98;;;3.42;;
9904;SDS011;4991;43.566;27.820;2022-07-12T14:38:58;7.13;;;2.58;;
9904;SDS011;4991;43.566;27.820;2022-07-12T14:41:24;7.47;;;2.80;;
9904;SDS011;4991;43.566;27.820;2022-07-12T14:43:49;6.65;;;2.60;;
9904;SDS011;4991;43.566;27.820;2022-07-12T14:46:15;8.93;;;3.10;;
9904;SDS011;4991;43.566;27.820;2022-07-12T14:48:42;11.50;;;2.75;;
9904;SDS011;4991;43.566;27.820;2022-07-12T14:51:08;3.42;;;2.50;;
9904;SDS011;4991;43.566;27.820;2022-07-12T14:53:34;5.85;;;3.13;;
9904;SDS011;4991;43.566;27.820;2022-07-12T14:56:00;8.80;;;3.30;;
9904;SDS011;4991;43.566;27.820;2022-07-12T14:58:26;11.45;;;4.15;;
9904;SDS011;4991;43.566;27.820;2022-07-12T15:00:54;16.27;;;3.92;;
9904;SDS011;4991;43.566;27.820;2022-07-12T15:03:20;12.55;;;3.30;;
9904;SDS011;4991;43.566;27.820;2022-07-12T15:05:45;6.10;;;3.22;;
9904;SDS011;4991;43.566;27.820;2022-07-12T15:08:12;5.90;;;2.88;;
9904;SDS011;4991;43.566;27.820;2022-07-12T15:10:37;8.65;;;3.00;;
9904;SDS011;4991;43.566;27.820;2022-07-12T15:13:03;9.07;;;3.08;;
9904;SDS011;4991;43.566;27.820;2022-07-12T15:15:29;13.98;;;3.17;;
9904;SDS011;4991;43.566;27.820;2022-07-12T15:17:54;12.32;;;3.45;;
9904;SDS011;4991;43.566;27.820;2022-07-12T15:20:20;6.35;;;2.70;;
9904;SDS011;4991;43.566;27.820;2022-07-12T15:22:46;3.28;;;2.45;;
9904;SDS011;4991;43.566;27.820;2022-07-12T15:25:12;4.28;;;2.70;;
9904;SDS011;4991;43.566;27.820;2022-07-12T15:27:38;6.78;;;3.17;;
9904;SDS011;4991;43.566;27.820;2022-07-12T15:30:04;5.32;;;3.00;;
9904;SDS011;4991;43.566;27.820;2022-07-12T15:32:30;10.02;;;3.45;;
9904;SDS011;4991;43.566;27.820;2022-07-12T15:34:56;8.57;;;2.10;;
9904;SDS011;4991;43.566;27.820;2022-07-12T15:37:22;6.75;;;2.40;;
9904;SDS011;4991;43.566;27.820;2022-07-12T15:39:48;7.50;;;3.58;;
9904;SDS011;4991;43.566;27.820;2022-07-12T15:42:15;6.70;;;2.70;;
9904;SDS011;4991;43.566;27.820;2022-07-12T15:44:40;8.13;;;3.80;;
9904;SDS011;4991;43.566;27.820;2022-07-12T15:47:07;6.22;;;2.90;;